createdAt,value
2018-01-12T00:00:20.784Z,64.53
2018-01-12T00:02:49.455Z,65.00
2018-01-12T00:05:17.944Z,60.97
2018-01-12T00:07:46.670Z,62.27
2018-01-12T00:10:16.203Z,57.13
2018-01-12T00:12:44.696Z,53.07
2018-01-12T00:15:13.947Z,54.50
2018-01-12T00:17:42.487Z,52.00
2018-01-12T00:20:10.975Z,48.73
2018-01-12T00:22:39.463Z,50.67
2018-01-12T00:25:08.492Z,57.40
2018-01-12T00:27:36.982Z,53.00
2018-01-12T00:30:05.655Z,57.90
2018-01-12T00:32:34.220Z,59.53
2018-01-12T00:35:02.838Z,51.57
2018-01-12T00:37:31.330Z,52.80
2018-01-12T00:40:00.091Z,55.00
2018-01-12T00:42:28.789Z,62.23
2018-01-12T00:44:57.464Z,55.10
2018-01-12T00:47:26.283Z,56.37
2018-01-12T00:49:54.807Z,51.97
2018-01-12T00:52:23.520Z,51.17
2018-01-12T00:54:52.141Z,49.23
2018-01-12T00:57:21.545Z,49.77
2018-01-12T00:59:50.056Z,41.43
2018-01-12T01:02:18.599Z,46.87
2018-01-12T01:04:47.298Z,49.43
2018-01-12T01:07:16.765Z,52.10
2018-01-12T01:09:45.291Z,63.93
2018-01-12T01:12:14.549Z,60.60
2018-01-12T01:14:43.129Z,52.03
2018-01-12T01:17:11.867Z,57.70
2018-01-12T01:19:41.124Z,54.07
2018-01-12T01:22:09.802Z,54.23
2018-01-12T01:24:38.344Z,53.53
2018-01-12T01:27:06.841Z,55.90
2018-01-12T01:29:35.552Z,74.20
2018-01-12T01:32:04.340Z,58.93
2018-01-12T01:34:32.831Z,54.87
2018-01-12T01:37:01.510Z,54.97
2018-01-12T01:39:30.052Z,46.63
2018-01-12T01:41:58.547Z,53.33
2018-01-12T01:44:27.209Z,46.73
2018-01-12T01:46:56.696Z,50.37
2018-01-12T01:49:26.120Z,52.43
2018-01-12T01:51:55.367Z,54.53
2018-01-12T01:54:24.156Z,47.63
2018-01-12T01:56:53.003Z,56.33
2018-01-12T01:59:22.089Z,57.30
2018-01-12T02:04:26.879Z,53.40
2018-01-12T02:06:55.410Z,50.67
2018-01-12T02:09:24.761Z,50.83
2018-01-12T02:11:53.557Z,48.57
2018-01-12T02:21:07.887Z,43.57
2018-01-12T02:23:37.142Z,41.53
2018-01-12T02:26:06.410Z,43.27
2018-01-12T02:28:35.262Z,45.33
2018-01-12T02:31:04.028Z,48.10
2018-01-12T02:33:32.518Z,46.60
2018-01-12T02:36:01.111Z,46.00
2018-01-12T02:38:29.604Z,49.47
2018-01-12T02:40:58.851Z,56.13
2018-01-12T02:43:27.412Z,56.07
2018-01-12T02:45:56.008Z,68.33
2018-01-12T02:48:24.682Z,64.83
2018-01-12T02:50:53.438Z,74.27
2018-01-12T02:53:22.093Z,71.10
2018-01-12T02:55:50.778Z,65.30
2018-01-12T02:58:19.500Z,62.77
2018-01-12T03:00:47.983Z,52.93
2018-01-12T03:03:17.238Z,54.53
2018-01-12T03:05:45.802Z,70.03
2018-01-12T03:08:14.515Z,65.80
2018-01-12T03:10:43.767Z,56.93
2018-01-12T03:13:13.360Z,61.90
2018-01-12T03:15:42.832Z,63.17
2018-01-12T03:18:11.323Z,58.63
2018-01-12T03:20:39.855Z,60.77
2018-01-12T03:23:08.582Z,52.60
2018-01-12T03:25:37.219Z,56.43
2018-01-12T03:28:06.543Z,58.07
2018-01-12T03:30:35.024Z,57.40
2018-01-12T03:33:03.623Z,58.30
2018-01-12T03:35:32.451Z,53.67
2018-01-12T03:38:01.816Z,48.97
2018-01-12T03:40:30.303Z,44.73
2018-01-12T03:42:59.188Z,45.67
2018-01-12T03:45:27.667Z,60.40
2018-01-12T03:47:56.251Z,49.70
2018-01-12T03:50:25.401Z,46.13
2018-01-12T03:52:54.853Z,47.67
2018-01-12T03:55:23.538Z,38.77
2018-01-12T03:57:52.354Z,37.40
2018-01-12T04:00:21.011Z,37.10
2018-01-12T04:02:49.495Z,33.07
2018-01-12T04:05:18.029Z,31.87
2018-01-12T04:07:47.280Z,34.33
2018-01-12T04:10:15.918Z,38.37
2018-01-12T04:12:44.911Z,36.17
2018-01-12T04:15:13.391Z,37.03
2018-01-12T04:17:42.639Z,38.70
2018-01-12T04:20:11.491Z,34.63
2018-01-12T04:22:39.975Z,37.03
2018-01-12T04:25:08.455Z,32.60
2018-01-12T04:27:36.983Z,30.90
2018-01-12T04:30:05.495Z,34.33
2018-01-12T04:32:34.797Z,33.50
2018-01-12T04:35:04.498Z,36.50
2018-01-12T04:37:33.963Z,33.47
2018-01-12T04:40:02.452Z,32.60
2018-01-12T04:42:30.980Z,32.53
2018-01-12T04:45:00.226Z,33.93
2018-01-12T04:47:28.711Z,33.27
2018-01-12T04:49:57.423Z,34.03
2018-01-12T04:52:25.910Z,32.47
2018-01-12T04:54:55.378Z,32.80
2018-01-12T04:57:24.108Z,34.50
2018-01-12T04:59:53.528Z,34.50
2018-01-12T05:02:22.780Z,36.90
2018-01-12T05:04:51.571Z,35.17
2018-01-12T05:07:20.061Z,34.43
2018-01-12T05:09:49.028Z,32.97
2018-01-12T05:12:17.572Z,32.93
2018-01-12T05:14:46.061Z,32.70
2018-01-12T05:17:14.559Z,36.93
2018-01-12T05:19:43.468Z,32.60
2018-01-12T05:22:11.957Z,34.87
2018-01-12T05:24:40.439Z,30.00
2018-01-12T05:27:09.423Z,34.47
2018-01-12T05:29:37.911Z,37.93
2018-01-12T05:32:06.392Z,41.30
2018-01-12T05:34:34.940Z,39.10
2018-01-12T05:37:04.103Z,61.33
2018-01-12T05:39:36.095Z,77.13
2018-01-12T05:42:05.471Z,78.97
2018-01-12T05:44:34.727Z,70.77
2018-01-12T05:47:03.247Z,64.03
2018-01-12T05:49:33.029Z,61.37
2018-01-12T05:52:01.519Z,51.73
2018-01-12T05:54:30.289Z,47.07
2018-01-12T05:56:59.012Z,58.40
2018-01-12T05:59:27.823Z,47.50
2018-01-12T06:02:14.703Z,48.27
2018-01-12T06:05:01.269Z,48.73
2018-01-12T06:07:29.804Z,51.93
2018-01-12T06:09:59.270Z,61.27
2018-01-12T06:12:27.755Z,67.30
2018-01-12T06:14:56.543Z,59.63
2018-01-12T06:17:25.029Z,65.83
2018-01-12T06:19:53.522Z,133.83
2018-01-12T06:22:22.241Z,84.67
2018-01-12T06:24:51.593Z,60.97
2018-01-12T06:27:20.088Z,128.77
2018-01-12T06:29:48.624Z,90.23
2018-01-12T06:32:17.116Z,89.77
2018-01-12T06:34:45.603Z,44.83
2018-01-12T06:37:14.134Z,49.50
2018-01-12T06:39:43.399Z,53.00
2018-01-12T06:42:11.881Z,28.93
2018-01-12T06:44:40.441Z,22.83
2018-01-12T06:47:08.935Z,21.13
2018-01-12T06:49:37.481Z,19.73
2018-01-12T06:52:06.968Z,18.10
2018-01-12T06:54:35.528Z,21.37
2018-01-12T06:57:05.682Z,17.57
2018-01-12T06:59:35.183Z,52.37
2018-01-12T07:02:04.484Z,30.90
2018-01-12T07:04:36.356Z,43.57
2018-01-12T07:07:06.324Z,131.23
2018-01-12T07:09:35.328Z,177.03
2018-01-12T07:12:09.001Z,144.83
2018-01-12T07:14:37.662Z,211.93
2018-01-12T07:17:08.833Z,285.97
2018-01-12T07:19:39.768Z,253.57
2018-01-12T07:22:27.739Z,246.30
2018-01-12T07:24:56.375Z,243.40
2018-01-12T07:27:24.881Z,174.20
2018-01-12T07:29:53.492Z,124.83
2018-01-12T07:32:22.292Z,93.83
2018-01-12T07:34:51.568Z,116.50
2018-01-12T07:37:20.063Z,159.43
2018-01-12T07:39:48.660Z,101.93
2018-01-12T07:42:17.203Z,95.03
2018-01-12T07:44:45.751Z,111.50
2018-01-12T07:47:14.352Z,122.37
2018-01-12T07:49:42.856Z,127.10
2018-01-12T07:52:11.356Z,118.07
2018-01-12T07:54:39.958Z,100.73
2018-01-12T07:57:08.532Z,99.77
2018-01-12T07:59:37.499Z,100.70
2018-01-12T08:02:11.796Z,83.27
2018-01-12T08:04:40.288Z,85.50
2018-01-12T08:07:08.782Z,91.17
2018-01-12T08:09:37.426Z,90.57
2018-01-12T08:12:06.144Z,87.20
2018-01-12T08:14:34.726Z,68.13
2018-01-12T08:17:03.263Z,60.23
2018-01-12T08:19:32.712Z,81.23
2018-01-12T08:22:01.397Z,97.93
2018-01-12T08:24:29.964Z,218.67
2018-01-12T08:26:58.459Z,179.63
2018-01-12T08:29:26.947Z,136.50
2018-01-12T08:31:55.636Z,121.97
2018-01-12T08:34:24.131Z,153.37
2018-01-12T08:36:52.851Z,208.87
2018-01-12T08:39:22.183Z,195.03
2018-01-12T08:41:50.678Z,146.10
2018-01-12T08:44:19.179Z,123.77
2018-01-12T08:46:47.887Z,105.27
2018-01-12T08:49:17.170Z,68.77
2018-01-12T08:51:46.427Z,68.30
2018-01-12T08:54:15.202Z,65.57
2018-01-12T08:56:43.921Z,83.87
2018-01-12T08:59:12.435Z,74.50
2018-01-12T09:01:41.036Z,67.13
2018-01-12T09:04:10.294Z,64.70
2018-01-12T09:06:38.973Z,55.77
2018-01-12T09:09:07.695Z,67.37
2018-01-12T09:11:36.263Z,65.83
2018-01-12T09:14:22.669Z,64.97
2018-01-12T09:16:52.911Z,58.90
2018-01-12T09:19:46.720Z,45.13
2018-01-12T09:25:10.768Z,39.70
2018-01-12T09:27:39.263Z,41.00
2018-01-12T09:30:08.526Z,41.27
2018-01-12T09:32:37.155Z,36.87
2018-01-12T09:35:06.568Z,37.23
2018-01-12T09:37:41.903Z,30.40
2018-01-12T09:43:11.793Z,28.17
2018-01-12T09:45:40.370Z,98.13
2018-01-12T09:48:36.487Z,34.60
2018-01-12T09:51:04.998Z,25.47
2018-01-12T09:53:33.558Z,26.33
2018-01-12T09:56:02.200Z,32.70
2018-01-12T09:58:31.764Z,24.60
2018-01-12T10:01:05.849Z,25.63
2018-01-12T10:03:34.387Z,25.53
2018-01-12T10:06:03.704Z,29.00
2018-01-12T10:08:32.431Z,28.80
2018-01-12T10:11:00.927Z,24.53
2018-01-12T10:13:29.419Z,29.43
2018-01-12T10:18:34.775Z,23.10
2018-01-12T10:21:12.950Z,22.67
2018-01-12T10:23:40.629Z,22.60
2018-01-12T10:26:08.276Z,25.57
2018-01-12T10:28:41.809Z,24.97
2018-01-12T10:31:09.602Z,22.03
2018-01-12T10:33:56.125Z,20.60
2018-01-12T10:36:46.196Z,12.70
2018-01-12T10:39:21.761Z,15.33
2018-01-12T10:42:08.276Z,13.90
2018-01-12T10:44:35.953Z,13.80
2018-01-12T10:47:22.431Z,14.40
2018-01-12T10:50:11.192Z,17.60
2018-01-12T10:52:45.751Z,20.00
2018-01-12T10:55:13.442Z,22.23
2018-01-12T10:57:41.845Z,20.73
2018-01-12T11:00:21.630Z,19.03
2018-01-12T11:02:49.331Z,19.40
2018-01-12T11:05:17.737Z,21.40
2018-01-12T11:07:45.685Z,19.63
2018-01-12T11:10:14.094Z,21.03
2018-01-12T11:12:41.725Z,23.47
2018-01-12T11:15:10.201Z,19.53
2018-01-12T11:17:38.607Z,23.17
2018-01-12T11:20:06.281Z,18.47
2018-01-12T11:22:34.022Z,14.17
2018-01-12T11:25:02.491Z,13.93
2018-01-12T11:27:30.890Z,10.37
2018-01-12T11:29:58.626Z,9.00
2018-01-12T11:32:27.031Z,8.60
2018-01-12T11:34:54.733Z,6.60
2018-01-12T11:37:22.420Z,4.33
2018-01-12T11:39:50.118Z,3.07
2018-01-12T11:42:18.135Z,2.13
2018-01-12T11:44:46.054Z,4.17
2018-01-12T11:47:13.695Z,1.90
2018-01-12T11:49:42.160Z,2.97
2018-01-12T11:52:10.093Z,2.83
2018-01-12T11:54:37.745Z,2.17
2018-01-12T11:57:05.459Z,7.97
2018-01-12T11:59:33.507Z,4.00
2018-01-12T12:02:01.178Z,1.17
2018-01-12T12:04:28.871Z,2.07
2018-01-12T12:06:57.366Z,1.17
2018-01-12T12:12:05.967Z,0.90
2018-01-12T12:16:24.039Z,3.93
2018-01-12T12:18:53.535Z,1.57
2018-01-12T12:21:22.855Z,2.17
2018-01-12T12:23:51.351Z,0.97
2018-01-12T12:26:19.958Z,1.30
2018-01-12T12:28:48.509Z,1.03
2018-01-12T12:31:17.066Z,1.47
2018-01-12T12:33:46.569Z,0.70
2018-01-12T12:36:15.862Z,0.73
2018-01-12T12:38:44.438Z,0.97
2018-01-12T12:41:14.068Z,2.77
2018-01-12T12:43:43.380Z,2.50
2018-01-12T12:46:11.955Z,2.07
2018-01-12T12:48:41.279Z,1.30
2018-01-12T12:51:09.779Z,3.47
2018-01-12T12:53:38.327Z,1.43
2018-01-12T12:56:06.961Z,4.57
2018-01-12T12:58:35.515Z,4.17
2018-01-12T13:01:04.050Z,4.43
2018-01-12T13:03:32.688Z,4.23
2018-01-12T13:06:01.192Z,4.20
2018-01-12T13:08:29.688Z,3.67
2018-01-12T13:10:58.483Z,5.43
2018-01-12T13:13:27.035Z,2.80
2018-01-12T13:15:55.527Z,2.80
2018-01-12T13:18:24.511Z,1.17
2018-01-12T13:20:53.067Z,1.93
2018-01-12T13:23:21.560Z,0.77
2018-01-12T13:25:50.184Z,1.10
2018-01-12T13:28:18.673Z,1.20
2018-01-12T13:30:47.938Z,0.80
2018-01-12T13:33:16.546Z,1.27
2018-01-12T13:35:45.049Z,1.00
2018-01-12T13:38:14.315Z,7.60
2018-01-12T13:40:42.863Z,9.73
2018-01-12T13:43:11.437Z,68.77
2018-01-12T13:45:40.055Z,7.37
2018-01-12T13:48:08.655Z,7.50
2018-01-12T13:50:37.632Z,2.53
2018-01-12T13:53:06.185Z,5.97
2018-01-12T13:55:35.004Z,2.57
2018-01-12T13:58:03.501Z,2.30
2018-01-12T14:00:32.034Z,2.47
2018-01-12T14:03:00.662Z,4.03
2018-01-12T14:05:29.171Z,2.90
2018-01-12T14:07:58.445Z,6.70
2018-01-12T14:10:27.057Z,1.30
2018-01-12T14:12:56.926Z,3.63
2018-01-12T14:15:25.512Z,9.93
2018-01-12T14:17:54.060Z,17.87
2018-01-12T14:20:22.547Z,13.10
2018-01-12T14:22:51.096Z,2.83
2018-01-12T14:25:20.603Z,4.27
2018-01-12T14:27:49.872Z,4.80
2018-01-12T14:30:18.446Z,3.77
2018-01-12T14:32:47.860Z,2.53
2018-01-12T14:35:16.383Z,1.77
2018-01-12T14:37:45.652Z,1.73
2018-01-12T14:40:14.283Z,2.60
2018-01-12T14:42:42.783Z,2.13
2018-01-12T14:45:11.278Z,2.50
2018-01-12T14:47:40.020Z,2.80
2018-01-12T14:50:09.286Z,3.57
2018-01-12T14:52:37.855Z,3.47
2018-01-12T14:55:06.389Z,2.57
2018-01-12T14:57:35.650Z,3.43
2018-01-12T15:00:04.235Z,2.13
2018-01-12T15:02:33.119Z,2.27
2018-01-12T15:05:01.638Z,1.53
2018-01-12T15:07:30.900Z,3.07
2018-01-12T15:09:59.616Z,3.30
2018-01-12T15:12:28.888Z,3.50
2018-01-12T15:14:57.452Z,3.47
2018-01-12T15:17:26.083Z,3.40
2018-01-12T15:19:55.339Z,4.23
2018-01-12T15:22:23.843Z,3.60
2018-01-12T15:24:52.421Z,4.23
2018-01-12T15:27:20.941Z,4.83
2018-01-12T15:29:49.435Z,4.73
2018-01-12T15:32:18.028Z,5.10
2018-01-12T15:34:46.525Z,5.37
2018-01-12T15:37:15.019Z,7.07
2018-01-12T15:39:43.834Z,6.03
2018-01-12T15:42:12.387Z,8.00
2018-01-12T15:44:40.888Z,9.30
2018-01-12T15:47:09.576Z,6.37
2018-01-12T15:49:38.079Z,9.33
2018-01-12T15:52:07.409Z,10.10
2018-01-12T15:54:35.975Z,10.53
2018-01-12T15:57:05.311Z,11.57
2018-01-12T15:59:33.812Z,12.20
2018-01-12T16:02:03.647Z,13.33
2018-01-12T16:04:32.143Z,11.40
2018-01-12T16:07:01.440Z,17.37
2018-01-12T16:09:31.108Z,16.20
2018-01-12T16:11:59.706Z,17.97
2018-01-12T16:14:28.212Z,15.37
2018-01-12T16:16:57.619Z,14.03
2018-01-12T16:19:26.871Z,14.87
2018-01-12T16:21:55.367Z,12.13
2018-01-12T16:24:24.063Z,11.90
2018-01-12T16:26:52.572Z,9.93
2018-01-12T16:29:21.832Z,12.00
2018-01-12T16:31:50.604Z,9.40
2018-01-12T16:34:19.101Z,11.47
2018-01-12T16:36:47.607Z,10.13
2018-01-12T16:39:17.472Z,8.10
2018-01-12T16:41:45.532Z,18.10
2018-01-12T16:44:14.036Z,22.47
2018-01-12T16:46:42.579Z,51.93
2018-01-12T16:49:11.083Z,20.40
2018-01-12T16:51:39.598Z,24.77
2018-01-12T16:54:08.197Z,28.47
2018-01-12T16:56:36.707Z,27.60
2018-01-12T16:59:05.275Z,26.27
2018-01-12T17:01:34.984Z,19.83
2018-01-12T17:04:04.357Z,21.10
2018-01-12T17:06:32.870Z,29.27
2018-01-12T17:09:02.188Z,64.00
2018-01-12T17:11:30.682Z,34.20
2018-01-12T17:13:59.189Z,29.00
2018-01-12T17:16:27.921Z,20.90
2018-01-12T17:18:57.194Z,21.53
2018-01-12T17:21:25.700Z,21.17
2018-01-12T17:23:55.195Z,24.23
2018-01-12T17:26:23.708Z,23.47
2018-01-12T17:28:52.277Z,35.27
2018-01-12T17:31:21.613Z,46.77
2018-01-12T17:33:50.169Z,57.30
2018-01-12T17:36:19.456Z,31.07
2018-01-12T17:38:48.985Z,21.63
2018-01-12T17:41:17.481Z,22.23
2018-01-12T17:43:45.984Z,25.20
2018-01-12T17:46:14.713Z,25.53
2018-01-12T17:48:44.038Z,24.57
2018-01-12T17:51:12.551Z,23.73
2018-01-12T17:53:41.151Z,26.37
2018-01-12T17:56:09.659Z,27.50
2018-01-12T17:58:38.925Z,26.30
2018-01-12T18:01:07.486Z,24.23
2018-01-12T18:03:36.062Z,25.00
2018-01-12T18:06:04.623Z,22.37
2018-01-12T18:08:34.004Z,19.63
2018-01-12T18:11:03.347Z,20.37
2018-01-12T18:13:31.920Z,20.77
2018-01-12T18:16:00.741Z,18.07
2018-01-12T18:18:29.245Z,17.40
2018-01-12T18:20:57.810Z,15.30
2018-01-12T18:23:26.354Z,17.50
2018-01-12T18:25:54.851Z,20.87
2018-01-12T18:28:23.344Z,15.33
2018-01-12T18:30:51.983Z,13.00
2018-01-12T18:33:21.300Z,14.27
2018-01-12T18:35:49.900Z,12.57
2018-01-12T18:38:19.598Z,12.67
2018-01-12T18:40:48.106Z,14.37
2018-01-12T18:43:16.598Z,13.80
2018-01-12T18:45:45.300Z,12.67
2018-01-12T18:48:13.780Z,15.77
2018-01-12T18:50:42.283Z,16.23
2018-01-12T18:53:11.841Z,20.67
2018-01-12T18:55:40.340Z,20.00
2018-01-12T18:58:09.523Z,24.93
2018-01-12T19:00:39.057Z,30.60
2018-01-12T19:03:07.595Z,20.70
2018-01-12T19:05:36.085Z,22.37
2018-01-12T19:08:05.086Z,25.67
2018-01-12T19:10:33.580Z,21.73
2018-01-12T19:13:02.207Z,40.03
2018-01-12T19:15:31.659Z,26.17
2018-01-12T19:18:00.345Z,21.60
2018-01-12T19:20:28.989Z,19.70
2018-01-12T19:22:57.879Z,19.80
2018-01-12T19:25:27.140Z,17.47
2018-01-12T19:27:55.647Z,18.77
2018-01-12T19:30:24.496Z,17.87
2018-01-12T19:32:53.767Z,12.67
2018-01-12T19:35:22.320Z,14.40
2018-01-12T19:37:51.087Z,12.17
2018-01-12T19:40:20.352Z,11.37
2018-01-12T19:42:48.864Z,10.20
2018-01-12T19:45:18.341Z,8.93
2018-01-12T19:47:46.847Z,13.43
2018-01-12T19:50:16.204Z,9.33
2018-01-12T19:52:44.888Z,10.40
2018-01-12T19:55:13.384Z,13.40
2018-01-12T19:57:41.891Z,16.63
2018-01-12T20:00:11.203Z,12.97
2018-01-12T20:02:40.621Z,14.73
2018-01-12T20:05:09.111Z,12.33
2018-01-12T20:07:37.924Z,15.23
2018-01-12T20:10:07.219Z,12.97
2018-01-12T20:12:35.773Z,17.67
2018-01-12T20:15:04.597Z,19.30
2018-01-12T20:17:33.098Z,14.27
2018-01-12T20:20:01.592Z,12.07
2018-01-12T20:22:30.170Z,11.67
2018-01-12T20:24:58.660Z,14.47
2018-01-12T20:27:27.142Z,21.63
2018-01-12T20:29:55.881Z,11.20
2018-01-12T20:32:24.375Z,10.83
2018-01-12T20:34:53.062Z,11.90
2018-01-12T20:37:21.783Z,12.87
2018-01-12T20:39:50.311Z,16.48
2018-01-12T20:42:19.304Z,13.13
2018-01-12T20:44:48.039Z,13.67
2018-01-12T20:47:16.901Z,12.90
2018-01-12T20:49:45.619Z,16.10
2018-01-12T20:52:15.591Z,12.33
2018-01-12T20:54:44.083Z,12.30
2018-01-12T20:57:12.750Z,12.83
2018-01-12T20:59:42.246Z,17.90
2018-01-12T21:02:11.536Z,15.03
2018-01-12T21:04:41.547Z,15.53
2018-01-12T21:07:10.570Z,13.30
2018-01-12T21:09:40.021Z,14.03
2018-01-12T21:12:08.509Z,13.67
2018-01-12T21:14:37.467Z,13.67
2018-01-12T21:17:05.970Z,14.43
2018-01-12T21:19:34.463Z,17.63
2018-01-12T21:22:03.184Z,19.73
2018-01-12T21:24:32.544Z,48.27
2018-01-12T21:27:01.035Z,83.70
2018-01-12T21:29:30.222Z,71.87
2018-01-12T21:31:58.722Z,67.53
2018-01-12T21:34:27.215Z,83.37
2018-01-12T21:36:57.509Z,43.17
2018-01-12T21:39:26.011Z,33.73
2018-01-12T21:41:54.519Z,36.17
2018-01-12T21:44:23.091Z,37.07
2018-01-12T21:46:52.507Z,35.80
2018-01-12T21:49:21.970Z,30.80
2018-01-12T21:51:50.687Z,18.23
2018-01-12T21:54:19.955Z,15.53
2018-01-12T21:56:48.522Z,20.60
2018-01-12T21:59:17.424Z,17.33
2018-01-12T22:01:45.912Z,14.20
2018-01-12T22:04:14.404Z,11.20
2018-01-12T22:06:42.963Z,13.57
2018-01-12T22:09:11.553Z,13.73
2018-01-12T22:11:40.240Z,10.87
2018-01-12T22:14:09.174Z,15.30
2018-01-12T22:16:38.635Z,12.77
2018-01-12T22:19:07.284Z,11.20
2018-01-12T22:21:36.004Z,12.70
2018-01-12T22:24:04.520Z,15.57
2018-01-12T22:26:34.351Z,10.73
2018-01-12T22:29:03.904Z,11.90
2018-01-12T22:31:32.548Z,14.37
2018-01-12T22:34:01.275Z,9.43
2018-01-12T22:36:29.843Z,16.40
2018-01-12T22:38:58.548Z,15.40
2018-01-12T22:41:27.038Z,11.97
2018-01-12T22:43:55.743Z,13.10
2018-01-12T22:46:24.396Z,10.83
2018-01-12T22:48:52.887Z,12.83
2018-01-12T22:51:21.455Z,12.50
2018-01-12T22:53:49.951Z,12.63
2018-01-12T22:56:18.524Z,10.70
2018-01-12T22:58:47.454Z,10.43
2018-01-12T23:01:17.449Z,15.23
2018-01-12T23:03:46.938Z,13.03
2018-01-12T23:06:15.427Z,13.93
2018-01-12T23:08:43.913Z,15.23
2018-01-12T23:11:12.800Z,10.33
2018-01-12T23:13:41.287Z,18.63
2018-01-12T23:16:09.968Z,16.27
2018-01-12T23:18:38.651Z,14.40
2018-01-12T23:21:07.154Z,14.40
2018-01-12T23:23:36.420Z,15.03
2018-01-12T23:26:05.214Z,15.97
2018-01-12T23:28:33.698Z,14.10
2018-01-12T23:31:02.182Z,14.80
2018-01-12T23:33:31.111Z,15.57
2018-01-12T23:36:00.410Z,14.83
2018-01-12T23:38:29.872Z,15.63
2018-01-12T23:40:58.811Z,12.93
2018-01-12T23:43:28.277Z,15.63
2018-01-12T23:45:56.774Z,14.33
2018-01-12T23:48:25.596Z,17.07
2018-01-12T23:50:55.035Z,14.73
2018-01-12T23:53:23.527Z,14.43
2018-01-12T23:55:52.318Z,12.30
2018-01-12T23:58:20.859Z,17.07
